Meridian, Arkansas
Current Conditions -  °F | °C
As of 9:15 AM on Thursday 18 Dec 2014 (Local Time) from KBQP Reporting Station
Haze Haze  
Wind Chill: 41°   Ceiling: 2900
Heat Index: 44°   Visibility: 5mi
Dew Point: 43°   Wind: 5mph
Humidity: 97%   Direction: 70°ENE
Pressure: 30.22"   Gusts: NA
Location:  33.1917°N, 91.9836°W
Report Text: KBQP 181515Z AUTO 07004KT 5SM BR SCT004 OVC029 07/06 A3022 RMK AO2 T00650060
Loading
Personal Weather Stations






























Interactive Weather Map New forecast layout! Learn more

10-Day Weather Forecast

Advertisements
Track Severe Weather on mobile